createdAt,value
2023-10-23T00:01:55.654Z,34.45
2023-10-23T00:04:19.888Z,36.72
2023-10-23T00:06:43.893Z,43.38
2023-10-23T00:09:07.848Z,38.97
2023-10-23T00:11:33.704Z,29.90
2023-10-23T00:13:58.241Z,30.77
2023-10-23T00:16:22.499Z,32.83
2023-10-23T00:18:46.605Z,31.75
2023-10-23T00:21:10.793Z,32.13
2023-10-23T00:23:34.581Z,32.13
2023-10-23T00:25:58.449Z,33.10
2023-10-23T00:28:23.545Z,33.47
2023-10-23T00:30:47.388Z,38.65
2023-10-23T00:33:11.248Z,33.67
2023-10-23T00:35:35.979Z,34.65
2023-10-23T00:37:59.783Z,35.22
2023-10-23T00:40:24.272Z,33.70
2023-10-23T00:42:48.165Z,40.75
2023-10-23T00:45:13.509Z,34.17
2023-10-23T00:47:38.205Z,33.25
2023-10-23T00:50:02.198Z,33.13
2023-10-23T00:52:26.325Z,36.85
2023-10-23T00:54:50.391Z,35.83
2023-10-23T00:57:14.557Z,35.88
2023-10-23T00:59:38.469Z,29.92
2023-10-23T01:02:04.721Z,38.20
2023-10-23T01:04:29.380Z,33.83
2023-10-23T01:06:53.322Z,33.13
2023-10-23T01:09:17.265Z,36.47
2023-10-23T01:11:41.069Z,38.70
2023-10-23T01:14:04.952Z,35.60
2023-10-23T01:16:28.910Z,38.30
2023-10-23T01:18:54.397Z,27.73
2023-10-23T01:21:18.246Z,31.75
2023-10-23T01:23:46.519Z,38.83
2023-10-23T01:26:11.703Z,37.53
2023-10-23T01:28:35.588Z,31.48
2023-10-23T01:30:59.784Z,36.50
2023-10-23T01:33:23.788Z,32.13
2023-10-23T01:35:47.767Z,32.03
2023-10-23T01:38:12.233Z,25.63
2023-10-23T01:40:36.124Z,30.75
2023-10-23T01:43:01.543Z,40.50
2023-10-23T01:45:25.574Z,33.25
2023-10-23T01:47:49.511Z,32.05
2023-10-23T01:50:13.517Z,33.92
2023-10-23T01:52:37.380Z,43.10
2023-10-23T01:55:01.177Z,30.83
2023-10-23T01:57:25.507Z,36.45
2023-10-23T01:59:50.887Z,39.38
2023-10-23T02:02:14.860Z,39.33
2023-10-23T02:04:40.707Z,36.83
2023-10-23T02:07:05.125Z,30.83
2023-10-23T02:09:30.024Z,36.63
2023-10-23T02:11:53.799Z,36.22
2023-10-23T02:14:17.572Z,36.13
2023-10-23T02:16:41.952Z,35.55
2023-10-23T02:19:06.239Z,31.85
2023-10-23T02:21:30.219Z,29.35
2023-10-23T02:23:57.056Z,32.72
2023-10-23T02:26:21.656Z,36.78
2023-10-23T02:28:45.497Z,38.05
2023-10-23T02:31:10.409Z,40.83
2023-10-23T02:33:37.546Z,39.00
2023-10-23T02:36:01.332Z,38.97
2023-10-23T02:38:25.238Z,39.08
2023-10-23T02:40:53.837Z,33.38
2023-10-23T02:43:18.172Z,40.35
2023-10-23T02:45:42.014Z,46.72
2023-10-23T02:48:06.204Z,35.03
2023-10-23T02:50:31.411Z,39.30
2023-10-23T02:52:55.226Z,35.38
2023-10-23T02:55:19.218Z,46.28
2023-10-23T02:57:43.341Z,30.67
2023-10-23T03:00:08.787Z,33.50
2023-10-23T03:02:32.794Z,32.88
2023-10-23T03:04:56.898Z,36.42
2023-10-23T03:07:22.310Z,34.53
2023-10-23T03:09:46.218Z,32.35
2023-10-23T03:12:10.193Z,34.25
2023-10-23T03:14:34.451Z,35.97
2023-10-23T03:16:58.708Z,32.15
2023-10-23T03:19:25.581Z,37.92
2023-10-23T03:21:49.542Z,33.45
2023-10-23T03:24:14.925Z,37.08
2023-10-23T03:26:38.781Z,30.80
2023-10-23T03:29:05.286Z,33.33
2023-10-23T03:31:29.323Z,32.25
2023-10-23T03:33:53.557Z,30.70
2023-10-23T03:36:18.302Z,35.95
2023-10-23T03:38:44.076Z,32.08
2023-10-23T03:41:09.392Z,33.25
2023-10-23T03:43:33.721Z,37.30
2023-10-23T03:45:58.138Z,34.47
2023-10-23T03:48:22.300Z,34.35
2023-10-23T03:50:46.368Z,30.77
2023-10-23T03:53:10.211Z,30.08
2023-10-23T03:55:38.486Z,35.65
2023-10-23T03:58:03.668Z,33.85
2023-10-23T04:00:27.667Z,41.45
2023-10-23T04:02:53.467Z,31.20
2023-10-23T04:05:17.514Z,39.20
2023-10-23T04:07:41.361Z,36.83
2023-10-23T04:10:08.651Z,35.58
2023-10-23T04:12:32.535Z,29.25
2023-10-23T04:14:58.209Z,34.80
2023-10-23T04:17:22.395Z,28.02
2023-10-23T04:19:49.598Z,37.63
2023-10-23T04:22:13.472Z,27.90
2023-10-23T04:24:37.450Z,25.13
2023-10-23T04:27:01.279Z,23.25
2023-10-23T04:29:25.241Z,29.13
2023-10-23T04:31:50.488Z,32.75
2023-10-23T04:34:15.851Z,39.10
2023-10-23T04:36:39.719Z,28.63
2023-10-23T04:39:03.636Z,34.53
2023-10-23T04:41:27.512Z,25.83
2023-10-23T04:43:51.506Z,33.13
2023-10-23T04:46:15.430Z,27.95
2023-10-23T04:48:40.741Z,28.75
2023-10-23T04:51:04.632Z,29.15
2023-10-23T04:53:28.601Z,27.30
2023-10-23T04:55:52.676Z,22.13
2023-10-23T04:58:16.640Z,30.50
2023-10-23T05:00:40.906Z,25.88
2023-10-23T05:03:05.732Z,24.00
2023-10-23T05:05:30.998Z,26.13
2023-10-23T05:07:54.786Z,27.15
2023-10-23T05:10:19.533Z,26.35
2023-10-23T05:12:46.284Z,28.10
2023-10-23T05:15:10.977Z,26.77
2023-10-23T05:17:35.085Z,27.00
2023-10-23T05:19:59.131Z,22.63
2023-10-23T05:22:24.542Z,24.77
2023-10-23T05:24:48.650Z,20.23
2023-10-23T05:27:12.938Z,20.33
2023-10-23T05:29:36.930Z,22.05
2023-10-23T05:32:01.075Z,17.92
2023-10-23T05:34:24.991Z,15.93
2023-10-23T05:36:49.448Z,28.02
2023-10-23T05:39:14.858Z,22.40
2023-10-23T05:41:38.971Z,24.27
2023-10-23T05:44:05.799Z,28.25
2023-10-23T05:46:31.574Z,26.30
2023-10-23T05:48:55.877Z,21.05
2023-10-23T05:51:20.027Z,26.98
2023-10-23T05:53:43.962Z,21.65
2023-10-23T05:56:09.571Z,18.98
2023-10-23T05:58:38.321Z,23.45
2023-10-23T06:01:06.910Z,27.33
2023-10-23T06:03:30.998Z,29.35
2023-10-23T06:05:55.150Z,24.17
2023-10-23T06:08:19.119Z,25.80
2023-10-23T06:10:43.717Z,23.42
2023-10-23T06:13:09.140Z,27.38
2023-10-23T06:15:34.856Z,23.23
2023-10-23T06:17:58.792Z,33.08
2023-10-23T06:20:22.678Z,25.55
2023-10-23T06:22:46.747Z,22.35
2023-10-23T06:25:10.907Z,25.55
2023-10-23T06:27:35.045Z,23.33
2023-10-23T06:30:00.393Z,22.08
2023-10-23T06:32:26.611Z,22.77
2023-10-23T06:34:53.084Z,17.30
2023-10-23T06:37:18.315Z,22.85
2023-10-23T06:39:42.450Z,18.80
2023-10-23T06:42:06.844Z,17.83
2023-10-23T06:44:31.321Z,26.40
2023-10-23T06:46:56.663Z,27.00
2023-10-23T06:49:20.566Z,22.13
2023-10-23T06:51:44.504Z,25.70
2023-10-23T06:54:08.620Z,23.10
2023-10-23T06:56:32.647Z,23.20
2023-10-23T06:58:56.514Z,21.23
2023-10-23T07:01:33.654Z,19.08
2023-10-23T07:04:06.821Z,22.58
2023-10-23T07:06:30.958Z,29.45
2023-10-23T07:09:03.948Z,20.17
2023-10-23T07:11:31.520Z,42.53
2023-10-23T07:14:03.748Z,34.45
2023-10-23T07:16:28.528Z,21.35
2023-10-23T07:18:52.748Z,32.20
2023-10-23T07:21:18.173Z,19.90
2023-10-23T07:23:42.134Z,25.25
2023-10-23T07:26:09.369Z,23.65
2023-10-23T07:28:33.297Z,22.48
2023-10-23T07:30:57.210Z,19.83
2023-10-23T07:33:21.112Z,22.45
2023-10-23T07:35:53.495Z,24.75
2023-10-23T07:38:19.779Z,31.08
2023-10-23T07:40:45.323Z,16.92
2023-10-23T07:43:09.357Z,20.45
2023-10-23T07:45:33.206Z,18.98
2023-10-23T07:47:58.898Z,17.50
2023-10-23T07:50:25.803Z,26.55
2023-10-23T07:52:50.466Z,23.40
2023-10-23T07:55:15.896Z,18.60
2023-10-23T07:57:39.831Z,16.67
2023-10-23T08:00:07.303Z,20.90
2023-10-23T08:02:31.404Z,20.00
2023-10-23T08:04:56.453Z,20.83
2023-10-23T08:07:20.495Z,19.17
2023-10-23T08:09:44.651Z,15.40
2023-10-23T08:12:13.690Z,24.90
2023-10-23T08:14:38.415Z,16.48
2023-10-23T08:17:02.507Z,18.77
2023-10-23T08:19:26.638Z,17.83
2023-10-23T08:21:50.892Z,18.00
2023-10-23T08:24:15.271Z,18.08
2023-10-23T08:26:39.439Z,13.13
2023-10-23T08:29:06.131Z,19.33
2023-10-23T08:31:39.493Z,17.30
2023-10-23T08:34:04.923Z,15.40
2023-10-23T08:36:28.888Z,18.05
2023-10-23T08:38:52.855Z,14.40
2023-10-23T08:41:16.891Z,15.90
2023-10-23T08:43:41.725Z,11.63
2023-10-23T08:46:09.346Z,10.93
2023-10-23T08:48:33.535Z,21.23
2023-10-23T08:50:59.048Z,19.60
2023-10-23T08:53:25.481Z,18.23
2023-10-23T08:55:52.256Z,18.33
2023-10-23T08:58:17.097Z,11.90
2023-10-23T09:00:41.021Z,15.57
2023-10-23T09:03:07.723Z,21.75
2023-10-23T09:05:31.711Z,14.98
2023-10-23T09:07:56.011Z,13.32
2023-10-23T09:10:19.975Z,17.92
2023-10-23T09:12:44.914Z,20.90
2023-10-23T09:15:18.440Z,21.00
2023-10-23T09:17:41.554Z,12.30
2023-10-23T09:20:26.535Z,14.40
2023-10-23T09:22:53.668Z,18.05
2023-10-23T09:25:18.106Z,19.33
2023-10-23T09:27:42.303Z,19.13
2023-10-23T09:30:07.509Z,19.88
2023-10-23T09:32:32.570Z,27.10
2023-10-23T09:34:57.606Z,17.30
2023-10-23T09:37:23.097Z,18.65
2023-10-23T09:39:47.762Z,20.30
2023-10-23T09:42:13.111Z,20.17
2023-10-23T09:44:38.846Z,19.10
2023-10-23T09:47:04.260Z,20.77
2023-10-23T09:49:29.386Z,17.05
2023-10-23T09:51:56.192Z,17.60
2023-10-23T09:54:22.186Z,13.93
2023-10-23T09:56:50.811Z,17.70
2023-10-23T09:59:18.565Z,12.63
2023-10-23T10:01:44.068Z,18.85
2023-10-23T10:04:15.101Z,20.75
2023-10-23T10:06:44.074Z,10.02
2023-10-23T10:09:13.518Z,24.13
2023-10-23T10:14:05.451Z,16.17
2023-10-23T10:16:29.665Z,31.55
2023-10-23T10:18:56.323Z,21.30
2023-10-23T10:21:24.945Z,18.45
2023-10-23T10:23:49.168Z,17.93
2023-10-23T10:26:13.173Z,25.35
2023-10-23T10:28:42.178Z,27.02
2023-10-23T10:31:06.222Z,25.33
2023-10-23T10:34:19.598Z,20.02
2023-10-23T10:36:46.069Z,23.70
2023-10-23T10:39:06.745Z,29.00
2023-10-23T10:41:30.653Z,36.25
2023-10-23T10:43:55.998Z,22.45
2023-10-23T10:46:22.630Z,33.55
2023-10-23T10:48:48.343Z,37.08
2023-10-23T10:51:14.155Z,33.22
2023-10-23T10:53:41.588Z,36.97
2023-10-23T10:56:09.352Z,27.98
2023-10-23T10:58:33.353Z,28.50
2023-10-23T11:01:01.195Z,22.73
2023-10-23T11:03:25.933Z,26.88
2023-10-23T11:05:49.939Z,30.65
2023-10-23T11:08:14.054Z,21.85
2023-10-23T11:10:37.796Z,27.60
2023-10-23T11:13:02.674Z,18.75
2023-10-23T11:15:27.199Z,18.73
2023-10-23T11:17:53.236Z,17.63
2023-10-23T11:20:18.042Z,15.23
2023-10-23T11:22:43.958Z,22.40
2023-10-23T11:25:10.353Z,21.95
2023-10-23T11:27:34.499Z,24.83
2023-10-23T11:29:58.373Z,25.40
2023-10-23T11:32:22.902Z,19.63
2023-10-23T11:34:48.941Z,15.43
2023-10-23T11:37:14.190Z,22.58
2023-10-23T11:39:40.059Z,35.95
2023-10-23T11:42:04.912Z,30.40
2023-10-23T11:44:29.626Z,22.77
2023-10-23T11:46:55.509Z,21.67
2023-10-23T11:49:22.034Z,20.60
2023-10-23T11:51:49.824Z,21.10
2023-10-23T11:54:14.675Z,21.40
2023-10-23T11:56:39.320Z,20.17
2023-10-23T11:59:03.824Z,18.35
2023-10-23T12:01:31.219Z,18.05
2023-10-23T12:03:58.497Z,18.40
2023-10-23T12:06:22.857Z,16.65
2023-10-23T12:08:48.452Z,20.95
2023-10-23T12:11:12.657Z,16.30
2023-10-23T12:13:38.686Z,13.30
2023-10-23T12:16:02.930Z,19.63
2023-10-23T12:18:27.721Z,20.67
2023-10-23T12:20:53.026Z,19.60
2023-10-23T12:23:17.201Z,20.17
2023-10-23T12:25:43.688Z,19.70
2023-10-23T12:28:07.695Z,24.95
2023-10-23T12:30:31.640Z,13.95
2023-10-23T12:33:13.889Z,20.83
2023-10-23T12:35:40.164Z,17.52
2023-10-23T12:38:04.581Z,24.77
2023-10-23T12:40:31.612Z,19.70
2023-10-23T12:45:23.773Z,18.95
2023-10-23T12:47:47.986Z,20.80
2023-10-23T12:50:12.591Z,26.00
2023-10-23T12:52:37.158Z,23.55
2023-10-23T12:55:01.173Z,26.25
2023-10-23T12:57:25.248Z,25.17
2023-10-23T12:59:50.825Z,22.95
2023-10-23T13:02:14.866Z,18.48
2023-10-23T13:04:39.103Z,25.52
2023-10-23T13:07:03.490Z,18.83
2023-10-23T13:09:27.645Z,20.85
2023-10-23T13:12:00.936Z,20.48
2023-10-23T13:14:25.236Z,19.73
2023-10-23T13:16:50.934Z,26.25
2023-10-23T13:19:17.010Z,22.17
2023-10-23T13:21:41.054Z,21.90
2023-10-23T13:24:06.331Z,25.67
2023-10-23T13:26:33.820Z,22.10
2023-10-23T13:28:58.104Z,24.80
2023-10-23T13:31:22.488Z,19.13
2023-10-23T13:33:48.465Z,22.88
2023-10-23T13:36:12.904Z,20.17
2023-10-23T13:38:37.377Z,20.45
2023-10-23T13:41:03.578Z,20.40
2023-10-23T13:43:30.066Z,26.58
2023-10-23T13:45:54.118Z,22.42
2023-10-23T13:48:18.657Z,20.02
2023-10-23T13:50:50.256Z,22.52
2023-10-23T13:53:14.508Z,26.33
2023-10-23T13:55:39.113Z,16.48
2023-10-23T13:58:04.367Z,25.75
2023-10-23T14:00:28.283Z,27.30
2023-10-23T14:02:52.465Z,25.17
2023-10-23T14:05:17.213Z,30.20
2023-10-23T14:07:43.200Z,23.92
2023-10-23T14:10:11.240Z,25.05
2023-10-23T14:12:48.048Z,27.17
2023-10-23T14:15:13.030Z,22.58
2023-10-23T14:17:37.854Z,27.58
2023-10-23T14:20:01.811Z,31.85
2023-10-23T14:22:25.835Z,20.55
2023-10-23T14:24:51.134Z,24.55
2023-10-23T14:27:15.180Z,24.10
2023-10-23T14:29:39.346Z,22.98
2023-10-23T14:32:03.525Z,23.77
2023-10-23T14:34:28.533Z,25.08
2023-10-23T14:36:52.601Z,28.65
2023-10-23T14:39:16.586Z,23.77
2023-10-23T14:41:41.915Z,25.25
2023-10-23T14:44:06.390Z,23.45
2023-10-23T14:46:30.389Z,28.23
2023-10-23T14:48:54.788Z,27.52
2023-10-23T14:51:18.824Z,22.35
2023-10-23T14:53:45.480Z,25.35
2023-10-23T14:56:12.685Z,30.42
2023-10-23T14:58:38.244Z,24.63
2023-10-23T15:01:02.131Z,30.88
2023-10-23T15:03:26.617Z,26.08
2023-10-23T15:05:50.577Z,30.65
2023-10-23T15:08:14.502Z,29.52
2023-10-23T15:10:39.523Z,43.67
2023-10-23T15:13:03.572Z,19.00
2023-10-23T15:15:33.050Z,33.97
2023-10-23T15:17:56.999Z,32.65
2023-10-23T15:20:21.290Z,30.30
2023-10-23T15:22:45.172Z,29.00
2023-10-23T15:25:11.042Z,23.15
2023-10-23T15:27:36.771Z,28.63
2023-10-23T15:30:32.628Z,27.48
2023-10-23T15:33:00.596Z,36.63
2023-10-23T15:35:24.614Z,25.13
2023-10-23T15:37:48.937Z,34.28
2023-10-23T15:40:14.316Z,32.85
2023-10-23T15:42:38.294Z,35.88
2023-10-23T15:45:02.412Z,35.15
2023-10-23T15:47:26.559Z,32.47
2023-10-23T15:49:51.816Z,27.33
2023-10-23T15:52:15.677Z,43.30
2023-10-23T15:54:40.108Z,38.83
2023-10-23T15:57:04.783Z,46.10
2023-10-23T15:59:30.149Z,39.53
2023-10-23T16:01:54.392Z,49.35
2023-10-23T16:04:18.647Z,66.68
2023-10-23T16:06:45.534Z,82.25
2023-10-23T16:09:22.099Z,88.25
2023-10-23T16:11:51.786Z,92.68
2023-10-23T16:14:15.901Z,92.35
2023-10-23T16:16:40.823Z,96.78
2023-10-23T16:19:06.944Z,95.10
2023-10-23T16:21:31.071Z,75.38
2023-10-23T16:23:56.263Z,64.13
2023-10-23T16:26:20.225Z,54.78
2023-10-23T16:28:44.011Z,47.15
2023-10-23T16:31:09.711Z,74.55
2023-10-23T16:33:34.388Z,59.08
2023-10-23T16:35:58.330Z,73.45
2023-10-23T16:38:22.221Z,68.07
2023-10-23T16:40:47.454Z,59.90
2023-10-23T16:43:14.463Z,104.63
2023-10-23T16:45:38.586Z,84.55
2023-10-23T16:48:04.253Z,69.70
2023-10-23T16:50:28.759Z,68.72
2023-10-23T16:52:52.729Z,66.20
2023-10-23T16:55:17.328Z,57.20
2023-10-23T16:57:43.119Z,62.78
2023-10-23T17:00:10.979Z,45.83
2023-10-23T17:02:38.619Z,49.10
2023-10-23T17:05:04.507Z,56.53
2023-10-23T17:07:31.320Z,56.25
2023-10-23T17:09:55.675Z,51.55
2023-10-23T17:12:19.584Z,49.55
2023-10-23T17:14:44.888Z,49.25
2023-10-23T17:17:08.897Z,45.50
2023-10-23T17:19:32.796Z,38.75
2023-10-23T17:21:59.550Z,31.85
2023-10-23T17:24:23.449Z,45.47
2023-10-23T17:26:54.464Z,34.65
2023-10-23T17:29:22.061Z,45.08
2023-10-23T17:31:47.967Z,42.47
2023-10-23T17:34:13.935Z,47.88
2023-10-23T17:36:37.936Z,59.38
2023-10-23T17:39:05.832Z,47.38
2023-10-23T17:41:29.758Z,49.97
2023-10-23T17:43:54.343Z,52.42
2023-10-23T17:46:21.910Z,53.10
2023-10-23T17:48:48.250Z,45.72
2023-10-23T17:51:16.707Z,48.05
2023-10-23T17:53:53.714Z,38.63
2023-10-23T17:56:26.751Z,56.88
2023-10-23T17:58:55.595Z,63.65
2023-10-23T18:01:19.640Z,54.60
2023-10-23T18:03:49.823Z,55.60
2023-10-23T18:06:13.781Z,60.05
2023-10-23T18:08:37.764Z,46.83
2023-10-23T18:11:01.679Z,58.22
2023-10-23T18:13:26.888Z,70.20
2023-10-23T18:15:50.790Z,69.53
2023-10-23T18:18:16.289Z,67.53
2023-10-23T18:20:44.669Z,65.70
2023-10-23T18:23:10.649Z,61.53
2023-10-23T18:25:37.831Z,53.17
2023-10-23T18:28:01.883Z,57.75
2023-10-23T18:30:27.438Z,55.05
2023-10-23T18:32:54.412Z,61.15
2023-10-23T18:35:18.473Z,52.95
2023-10-23T18:37:46.551Z,44.15
2023-10-23T18:40:11.245Z,45.17
2023-10-23T18:42:35.809Z,46.58
2023-10-23T18:45:00.988Z,42.30
2023-10-23T18:47:24.991Z,37.78
2023-10-23T18:49:52.469Z,34.35
2023-10-23T18:52:17.503Z,31.92
2023-10-23T18:54:46.007Z,34.75
2023-10-23T18:57:13.833Z,30.85
2023-10-23T18:59:38.126Z,33.80
2023-10-23T19:02:05.110Z,43.58
2023-10-23T19:04:29.140Z,36.30
2023-10-23T19:06:53.948Z,36.10
2023-10-23T19:09:17.850Z,31.67
2023-10-23T19:11:43.077Z,39.83
2023-10-23T19:14:07.076Z,37.28
2023-10-23T19:16:31.141Z,29.75
2023-10-23T19:18:55.069Z,32.17
2023-10-23T19:21:18.975Z,34.05
2023-10-23T19:23:43.672Z,32.35
2023-10-23T19:26:10.796Z,26.92
2023-10-23T19:28:36.572Z,30.70
2023-10-23T19:31:01.370Z,30.05
2023-10-23T19:33:25.821Z,24.75
2023-10-23T19:35:50.583Z,23.15
2023-10-23T19:38:14.914Z,30.73
2023-10-23T19:40:40.033Z,24.40
2023-10-23T19:43:14.461Z,31.52
2023-10-23T19:45:40.474Z,21.98
2023-10-23T19:48:05.134Z,33.03
2023-10-23T19:50:29.819Z,34.47
2023-10-23T19:52:54.628Z,38.28
2023-10-23T19:55:43.559Z,23.20
2023-10-23T19:58:05.549Z,24.17
2023-10-23T20:00:29.358Z,25.13
2023-10-23T20:02:55.925Z,23.80
2023-10-23T20:05:20.131Z,28.05
2023-10-23T20:07:44.084Z,28.88
2023-10-23T20:10:09.733Z,30.30
2023-10-23T20:12:34.926Z,29.83
2023-10-23T20:15:01.316Z,25.20
2023-10-23T20:17:25.398Z,25.70
2023-10-23T20:19:50.866Z,22.35
2023-10-23T20:22:14.764Z,19.52
2023-10-23T20:24:42.379Z,23.48
2023-10-23T20:27:07.724Z,22.33
2023-10-23T20:29:31.692Z,24.60
2023-10-23T20:31:55.663Z,24.98
2023-10-23T20:34:19.674Z,31.73
2023-10-23T20:36:45.017Z,25.83
2023-10-23T20:39:11.288Z,28.05
2023-10-23T20:41:35.282Z,26.42
2023-10-23T20:43:59.062Z,31.30
2023-10-23T20:46:23.073Z,29.40
2023-10-23T20:48:47.489Z,24.58
2023-10-23T20:51:11.946Z,18.42
2023-10-23T20:53:37.383Z,23.58
2023-10-23T20:56:04.533Z,20.45
2023-10-23T20:58:28.417Z,32.33
2023-10-23T21:00:52.242Z,32.97
2023-10-23T21:03:16.313Z,38.72
2023-10-23T21:05:40.116Z,26.92
2023-10-23T21:08:04.224Z,20.90
2023-10-23T21:10:31.881Z,26.50
2023-10-23T21:12:58.676Z,20.90
2023-10-23T21:15:22.563Z,21.80
2023-10-23T21:17:46.671Z,29.92
2023-10-23T21:20:11.779Z,24.00
2023-10-23T21:22:35.812Z,27.45
2023-10-23T21:24:59.594Z,22.05
2023-10-23T21:27:26.005Z,21.90
2023-10-23T21:29:49.880Z,22.02
2023-10-23T21:32:14.164Z,45.40
2023-10-23T21:34:38.042Z,27.98
2023-10-23T21:37:01.956Z,27.90
2023-10-23T21:39:26.239Z,22.65
2023-10-23T21:41:50.743Z,17.05
2023-10-23T21:44:15.961Z,32.53
2023-10-23T21:46:40.077Z,22.63
2023-10-23T21:49:05.210Z,19.45
2023-10-23T21:51:29.241Z,33.40
2023-10-23T21:53:53.826Z,31.48
2023-10-23T21:57:13.178Z,23.98
2023-10-23T21:59:11.331Z,24.23
2023-10-23T22:01:39.186Z,33.80
2023-10-23T22:04:03.949Z,23.42
2023-10-23T22:06:31.305Z,27.02
2023-10-23T22:08:55.592Z,24.38
2023-10-23T22:11:21.224Z,23.17
2023-10-23T22:13:45.389Z,29.40
2023-10-23T22:16:09.391Z,25.48
2023-10-23T22:18:35.819Z,28.85
2023-10-23T22:20:59.755Z,24.90
2023-10-23T22:23:24.077Z,24.88
2023-10-23T22:25:50.829Z,24.52
2023-10-23T22:28:15.604Z,17.95
2023-10-23T22:30:39.739Z,23.98
2023-10-23T22:33:14.452Z,21.95
2023-10-23T22:35:40.547Z,23.23
2023-10-23T22:38:09.537Z,18.00
2023-10-23T22:40:33.697Z,29.75
2023-10-23T22:42:58.678Z,25.58
2023-10-23T22:45:22.491Z,26.90
2023-10-23T22:47:46.507Z,20.38
2023-10-23T22:50:11.645Z,22.52
2023-10-23T22:52:40.479Z,18.05
2023-10-23T22:55:06.311Z,19.33
2023-10-23T22:57:31.694Z,17.23
2023-10-23T22:59:55.971Z,22.05
2023-10-23T23:02:21.773Z,25.40
2023-10-23T23:04:47.121Z,33.08
2023-10-23T23:07:12.831Z,22.38
2023-10-23T23:09:38.988Z,26.17
2023-10-23T23:12:03.250Z,25.75
2023-10-23T23:14:27.710Z,18.20
2023-10-23T23:16:52.395Z,25.13
2023-10-23T23:19:19.484Z,20.67
2023-10-23T23:21:44.852Z,22.77
2023-10-23T23:24:09.890Z,21.13
2023-10-23T23:26:35.900Z,27.55
2023-10-23T23:28:59.776Z,19.77
2023-10-23T23:31:23.772Z,21.70
2023-10-23T23:33:48.052Z,25.67
2023-10-23T23:36:11.885Z,25.95
2023-10-23T23:38:35.774Z,30.27
2023-10-23T23:40:59.748Z,22.95
2023-10-23T23:43:25.648Z,23.02
2023-10-23T23:45:49.537Z,22.60
2023-10-23T23:48:13.411Z,30.13
2023-10-23T23:50:37.200Z,21.65
2023-10-23T23:53:01.284Z,17.75
2023-10-23T23:55:25.298Z,24.55
2023-10-23T23:57:49.131Z,21.92
